Time;durP1;ratioP1;P1;durP2;ratioP2;P2;SDS_P1;SDS_P2;PMS_P1;PMS_P2;Temp;Humidity;BMP_temperature;BMP_pressure;BME280_temperature;BME280_humidity;BME280_pressure;Samples;Min_cycle;Max_cycle;Signal;HPM_P1;HPM_P2
2023/03/01 00:00:11;;;;;;;20.77;14.17;;;;;;;;;;4978405;28;20247;-78
2023/03/01 00:02:39;;;;;;;19.87;14.27;;;;;;;;;;4978184;28;20762;-77
2023/03/01 00:05:07;;;;;;;22.17;14.97;;;;;;;;;;4976738;28;20231;-78
2023/03/01 00:07:34;;;;;;;20.60;14.00;;;;;;;;;;4968520;28;20291;-77
2023/03/01 00:10:01;;;;;;;22.43;13.93;;;;;;;;;;4964515;28;20690;-75
2023/03/01 00:12:29;;;;;;;23.30;14.97;;;;;;;;;;4964627;28;20212;-77
2023/03/01 00:14:56;;;;;;;23.03;14.83;;;;;;;;;;4960408;28;20208;-76
2023/03/01 00:17:24;;;;;;;23.23;15.23;;;;;;;;;;4962399;28;20213;-79
2023/03/01 00:19:51;;;;;;;21.17;14.30;;;;;;;;;;4956733;28;20354;-78
2023/03/01 00:22:18;;;;;;;21.33;13.77;;;;;;;;;;4963995;28;20236;-77
2023/03/01 00:24:45;;;;;;;25.97;15.77;;;;;;;;;;4975900;28;20557;-77
2023/03/01 00:27:13;;;;;;;19.87;14.37;;;;;;;;;;4958790;28;20236;-78
2023/03/01 00:29:40;;;;;;;22.67;14.70;;;;;;;;;;4961064;28;21988;-76
2023/03/01 00:32:07;;;;;;;21.23;14.17;;;;;;;;;;4964207;28;20594;-76
2023/03/01 00:34:34;;;;;;;23.23;14.87;;;;;;;;;;4971737;28;20720;-78
2023/03/01 00:37:05;;;;;;;22.93;15.47;;;;;;;;;;4972702;28;20209;-76
2023/03/01 00:39:33;;;;;;;22.33;15.10;;;;;;;;;;4973845;28;20673;-78
2023/03/01 00:42:00;;;;;;;25.00;16.00;;;;;;;;;;4972782;28;20295;-78
2023/03/01 00:44:29;;;;;;;23.67;14.70;;;;;;;;;;4976862;28;21239;-78
2023/03/01 00:46:56;;;;;;;23.77;16.13;;;;;;;;;;4970265;28;20232;-78
2023/03/01 00:49:27;;;;;;;27.53;15.23;;;;;;;;;;4987745;28;20365;-77
2023/03/01 00:51:54;;;;;;;24.43;16.17;;;;;;;;;;4975903;28;20895;-77
2023/03/01 00:54:21;;;;;;;21.27;14.13;;;;;;;;;;4970898;28;20197;-77
2023/03/01 00:56:48;;;;;;;22.80;15.43;;;;;;;;;;4967804;28;20718;-75
2023/03/01 00:59:16;;;;;;;23.90;14.77;;;;;;;;;;4977501;28;20208;-77
2023/03/01 01:01:43;;;;;;;23.07;14.87;;;;;;;;;;4979774;28;20232;-77
2023/03/01 01:04:12;;;;;;;23.23;14.93;;;;;;;;;;4976594;28;20803;-78
2023/03/01 01:06:42;;;;;;;23.47;15.43;;;;;;;;;;4981856;28;20224;-76
2023/03/01 01:09:16;;;;;;;24.50;15.27;;;;;;;;;;4984613;28;20319;-76
2023/03/01 01:11:45;;;;;;;23.07;15.53;;;;;;;;;;4992560;28;20327;-75
2023/03/01 01:14:12;;;;;;;23.07;15.47;;;;;;;;;;4971666;28;20228;-77
2023/03/01 01:16:40;;;;;;;24.07;15.93;;;;;;;;;;4970762;28;20274;-78
2023/03/01 01:19:07;;;;;;;21.23;14.73;;;;;;;;;;4970444;28;20221;-76
2023/03/01 01:21:34;;;;;;;22.20;15.37;;;;;;;;;;4970561;28;20234;-74
2023/03/01 01:24:03;;;;;;;23.70;16.17;;;;;;;;;;4958943;28;20208;-77
2023/03/01 01:26:31;;;;;;;25.97;16.43;;;;;;;;;;4951859;28;20304;-77
2023/03/01 01:29:00;;;;;;;25.67;15.57;;;;;;;;;;4956629;28;20326;-77
2023/03/01 01:31:28;;;;;;;25.90;16.97;;;;;;;;;;4951563;28;20232;-79
2023/03/01 01:33:55;;;;;;;23.90;15.63;;;;;;;;;;4972675;28;20207;-76
2023/03/01 01:36:24;;;;;;;24.33;15.27;;;;;;;;;;4972235;28;20219;-78
2023/03/01 01:38:52;;;;;;;25.53;16.50;;;;;;;;;;4968428;28;20817;-78
2023/03/01 01:41:23;;;;;;;24.33;15.90;;;;;;;;;;4971376;28;20236;-78
2023/03/01 01:44:10;;;;;;;24.33;16.27;;;;;;;;;;4951989;28;20206;-77
2023/03/01 01:46:39;;;;;;;25.83;16.73;;;;;;;;;;4951259;28;20227;-76
2023/03/01 01:49:26;;;;;;;24.20;16.07;;;;;;;;;;4957815;28;20739;-73
2023/03/01 01:52:07;;;;;;;24.07;16.83;;;;;;;;;;4952229;28;20544;-78
2023/03/01 01:54:40;;;;;;;24.83;16.27;;;;;;;;;;4948986;28;20212;-77
2023/03/01 01:57:14;;;;;;;26.60;16.70;;;;;;;;;;4952672;28;20238;-76
2023/03/01 01:59:42;;;;;;;26.10;16.93;;;;;;;;;;4954385;28;20727;-77
2023/03/01 02:02:09;;;;;;;26.07;17.43;;;;;;;;;;4953887;28;20733;-76
2023/03/01 02:04:36;;;;;;;26.53;17.10;;;;;;;;;;4948154;28;20207;-78
2023/03/01 02:07:08;;;;;;;25.90;18.13;;;;;;;;;;4944020;28;20762;-76
2023/03/01 02:09:36;;;;;;;25.17;17.80;;;;;;;;;;4964420;28;20200;-77
2023/03/01 02:12:04;;;;;;;27.00;18.30;;;;;;;;;;4951755;28;20212;-76
2023/03/01 02:14:31;;;;;;;26.67;17.37;;;;;;;;;;4961176;28;20334;-74
2023/03/01 02:16:58;;;;;;;27.17;18.50;;;;;;;;;;4956135;28;20231;-77
2023/03/01 02:19:31;;;;;;;30.50;19.77;;;;;;;;;;4961744;28;20285;-76
2023/03/01 02:22:02;;;;;;;30.10;18.33;;;;;;;;;;4960866;28;20228;-77
2023/03/01 02:24:32;;;;;;;25.03;16.77;;;;;;;;;;4951672;28;20687;-78
2023/03/01 02:27:01;;;;;;;30.53;18.40;;;;;;;;;;4959448;28;20232;-77
2023/03/01 02:29:30;;;;;;;27.97;17.70;;;;;;;;;;4954971;28;20228;-75
2023/03/01 02:31:58;;;;;;;26.27;17.13;;;;;;;;;;4952340;28;20204;-76
2023/03/01 02:34:26;;;;;;;27.43;17.97;;;;;;;;;;4954048;28;20209;-74
2023/03/01 02:36:55;;;;;;;28.10;18.37;;;;;;;;;;4964876;28;20288;-77
2023/03/01 02:39:26;;;;;;;26.13;17.57;;;;;;;;;;4954926;28;20211;-75
2023/03/01 02:41:54;;;;;;;26.37;17.27;;;;;;;;;;4959039;28;20290;-75
2023/03/01 02:44:22;;;;;;;27.97;16.97;;;;;;;;;;4955236;28;20293;-74
2023/03/01 02:46:50;;;;;;;26.57;17.57;;;;;;;;;;4947750;28;20437;-77
2023/03/01 02:49:25;;;;;;;28.57;18.80;;;;;;;;;;4955896;28;20208;-78
2023/03/01 02:51:55;;;;;;;27.67;17.97;;;;;;;;;;4955172;28;20226;-78
2023/03/01 02:54:29;;;;;;;27.70;18.20;;;;;;;;;;4959136;28;20666;-74
2023/03/01 02:56:56;;;;;;;27.30;17.93;;;;;;;;;;4963648;28;20685;-76
2023/03/01 02:59:27;;;;;;;25.37;17.67;;;;;;;;;;4965443;28;20256;-74
2023/03/01 03:01:54;;;;;;;30.23;17.63;;;;;;;;;;4959319;28;20233;-79
2023/03/01 03:04:21;;;;;;;29.53;18.97;;;;;;;;;;4959306;28;20224;-75
2023/03/01 03:06:49;;;;;;;28.23;18.47;;;;;;;;;;4952576;28;20238;-76
2023/03/01 03:09:17;;;;;;;28.13;17.90;;;;;;;;;;4957069;28;20205;-75
2023/03/01 03:11:44;;;;;;;27.17;18.30;;;;;;;;;;4961079;28;20481;-77
2023/03/01 03:14:13;;;;;;;28.73;18.97;;;;;;;;;;4952023;28;20208;-76
2023/03/01 03:16:45;;;;;;;28.50;18.97;;;;;;;;;;4960235;28;20213;-76
2023/03/01 03:19:13;;;;;;;27.37;18.27;;;;;;;;;;4952061;28;20225;-77
2023/03/01 03:21:40;;;;;;;27.43;18.67;;;;;;;;;;4952554;28;20321;-73
2023/03/01 03:24:07;;;;;;;27.20;17.73;;;;;;;;;;4959631;28;20221;-77
2023/03/01 03:26:35;;;;;;;28.70;18.10;;;;;;;;;;4954689;28;20225;-76
2023/03/01 03:29:02;;;;;;;31.40;18.77;;;;;;;;;;4952338;28;20295;-77
2023/03/01 03:31:30;;;;;;;29.67;19.67;;;;;;;;;;4955364;28;20718;-77
2023/03/01 03:33:58;;;;;;;29.77;19.00;;;;;;;;;;4970469;28;20202;-75
2023/03/01 03:36:26;;;;;;;27.70;17.73;;;;;;;;;;4972960;28;20254;-76
2023/03/01 03:38:53;;;;;;;29.13;19.23;;;;;;;;;;4973462;28;20851;-76
2023/03/01 03:41:20;;;;;;;27.60;19.77;;;;;;;;;;4973228;28;20228;-74
2023/03/01 03:43:48;;;;;;;30.87;19.87;;;;;;;;;;4953413;28;20212;-75
2023/03/01 03:46:16;;;;;;;39.37;24.40;;;;;;;;;;4959182;28;20228;-73
2023/03/01 03:48:44;;;;;;;56.40;32.80;;;;;;;;;;4958939;28;20757;-73
2023/03/01 03:51:13;;;;;;;120.50;54.87;;;;;;;;;;4953483;28;20229;-78
2023/03/01 03:53:40;;;;;;;236.90;103.07;;;;;;;;;;4956411;28;20344;-73
2023/03/01 03:56:08;;;;;;;97.97;49.67;;;;;;;;;;4951730;28;20225;-77
2023/03/01 03:58:35;;;;;;;155.37;74.53;;;;;;;;;;4958909;28;20205;-77
2023/03/01 04:01:03;;;;;;;69.43;39.07;;;;;;;;;;4959438;28;20236;-75
2023/03/01 04:03:31;;;;;;;27.50;18.10;;;;;;;;;;4947497;28;20587;-75
2023/03/01 04:05:59;;;;;;;28.97;18.93;;;;;;;;;;4959351;28;20298;-76
2023/03/01 04:08:27;;;;;;;30.07;19.70;;;;;;;;;;4958362;28;20304;-76
2023/03/01 04:11:00;;;;;;;30.37;19.10;;;;;;;;;;4958455;28;20232;-74
2023/03/01 04:13:28;;;;;;;27.17;18.50;;;;;;;;;;4974704;28;20209;-74
2023/03/01 04:15:55;;;;;;;28.43;18.47;;;;;;;;;;4966466;28;20269;-77
2023/03/01 04:18:25;;;;;;;30.00;18.43;;;;;;;;;;4963290;28;20217;-75
2023/03/01 04:20:55;;;;;;;27.33;16.87;;;;;;;;;;4962587;28;20307;-74
2023/03/01 04:23:22;;;;;;;27.00;18.80;;;;;;;;;;4962534;28;20205;-77
2023/03/01 04:25:55;;;;;;;29.17;18.37;;;;;;;;;;4964228;28;20288;-77
2023/03/01 04:28:34;;;;;;;27.23;17.90;;;;;;;;;;4977417;28;20584;-77
2023/03/01 04:31:12;;;;;;;26.63;18.43;;;;;;;;;;4971359;28;20268;-79
2023/03/01 04:33:44;;;;;;;25.97;17.60;;;;;;;;;;4974351;28;20268;-76
2023/03/01 04:36:13;;;;;;;27.47;17.97;;;;;;;;;;4975765;28;20209;-78
2023/03/01 04:38:40;;;;;;;27.30;17.53;;;;;;;;;;4973450;28;20299;-76
2023/03/01 04:41:09;;;;;;;27.20;17.97;;;;;;;;;;4970122;28;20240;-75
2023/03/01 04:43:37;;;;;;;26.60;18.23;;;;;;;;;;4974005;28;20238;-78
2023/03/01 04:46:06;;;;;;;28.47;18.27;;;;;;;;;;4970994;28;20215;-79
2023/03/01 04:48:34;;;;;;;27.80;18.77;;;;;;;;;;4976481;28;20241;-75
2023/03/01 04:51:01;;;;;;;30.30;18.97;;;;;;;;;;4975041;28;20241;-76
2023/03/01 04:53:29;;;;;;;33.13;19.63;;;;;;;;;;4967502;28;20203;-79
2023/03/01 04:55:57;;;;;;;28.63;18.40;;;;;;;;;;4969767;28;20691;-78
2023/03/01 04:58:24;;;;;;;25.40;17.67;;;;;;;;;;4972856;28;20690;-76
2023/03/01 05:00:52;;;;;;;31.57;20.37;;;;;;;;;;4975643;28;20301;-74
2023/03/01 05:03:19;;;;;;;29.67;18.50;;;;;;;;;;4978196;28;20601;-78
2023/03/01 05:05:47;;;;;;;29.13;19.57;;;;;;;;;;4979655;28;20201;-78
2023/03/01 05:08:18;;;;;;;30.70;19.63;;;;;;;;;;4982309;28;20225;-76
2023/03/01 05:10:46;;;;;;;27.53;18.90;;;;;;;;;;4973679;28;20220;-75
2023/03/01 05:13:20;;;;;;;31.53;20.77;;;;;;;;;;4978625;28;20694;-80
2023/03/01 05:15:49;;;;;;;29.17;18.30;;;;;;;;;;4965039;28;20207;-77
2023/03/01 05:18:16;;;;;;;33.53;20.10;;;;;;;;;;4967683;28;20224;-78
2023/03/01 05:20:44;;;;;;;26.97;18.07;;;;;;;;;;4966436;28;20264;-76
2023/03/01 05:23:14;;;;;;;33.00;20.07;;;;;;;;;;4965205;28;20287;-78
2023/03/01 05:25:41;;;;;;;30.40;19.07;;;;;;;;;;4968005;28;20212;-77
2023/03/01 05:28:11;;;;;;;30.03;19.47;;;;;;;;;;4962757;28;20233;-79
2023/03/01 05:30:40;;;;;;;27.60;17.77;;;;;;;;;;4968104;28;20229;-78
2023/03/01 05:33:14;;;;;;;31.53;19.23;;;;;;;;;;4979399;28;20208;-77
2023/03/01 05:35:42;;;;;;;29.47;18.63;;;;;;;;;;4975721;28;20207;-78
2023/03/01 05:38:13;;;;;;;30.27;20.20;;;;;;;;;;4980818;28;20298;-79
2023/03/01 05:40:44;;;;;;;29.43;19.50;;;;;;;;;;4975717;28;20231;-77
2023/03/01 05:43:12;;;;;;;26.50;18.10;;;;;;;;;;4969017;28;20200;-79
2023/03/01 05:45:40;;;;;;;29.63;19.00;;;;;;;;;;4968097;28;20224;-77
2023/03/01 05:48:08;;;;;;;28.63;18.60;;;;;;;;;;4966978;28;20222;-80
2023/03/01 05:50:37;;;;;;;27.17;17.83;;;;;;;;;;4965555;28;20722;-79
2023/03/01 05:53:06;;;;;;;29.07;19.47;;;;;;;;;;4963134;28;20213;-78
2023/03/01 05:55:33;;;;;;;30.27;18.83;;;;;;;;;;4968225;28;20201;-77
2023/03/01 05:58:01;;;;;;;25.93;17.93;;;;;;;;;;4964004;28;20233;-78
2023/03/01 06:00:29;;;;;;;27.57;18.10;;;;;;;;;;4967208;28;20229;-79
2023/03/01 06:02:58;;;;;;;27.00;18.77;;;;;;;;;;4965934;28;20300;-78
2023/03/01 06:05:26;;;;;;;26.57;17.53;;;;;;;;;;4973451;28;20256;-80
2023/03/01 06:07:54;;;;;;;29.40;19.07;;;;;;;;;;4964335;28;20220;-79
2023/03/01 06:10:22;;;;;;;31.67;20.00;;;;;;;;;;4967010;28;20229;-77
2023/03/01 06:12:49;;;;;;;32.20;19.27;;;;;;;;;;4959927;28;20686;-78
2023/03/01 06:15:19;;;;;;;25.80;18.23;;;;;;;;;;4957805;28;20209;-78
2023/03/01 06:17:46;;;;;;;30.57;18.50;;;;;;;;;;4962243;28;20708;-76
2023/03/01 06:20:18;;;;;;;27.63;17.97;;;;;;;;;;4955451;28;20240;-77
2023/03/01 06:22:46;;;;;;;29.27;19.03;;;;;;;;;;4957123;28;20247;-77
2023/03/01 06:25:15;;;;;;;27.93;18.37;;;;;;;;;;4951240;28;20217;-76
2023/03/01 06:27:42;;;;;;;25.53;16.73;;;;;;;;;;4953605;28;20296;-78
2023/03/01 06:30:11;;;;;;;26.30;17.33;;;;;;;;;;4958171;28;20227;-78
2023/03/01 06:32:41;;;;;;;26.90;17.87;;;;;;;;;;4953359;28;20532;-73
2023/03/01 06:35:10;;;;;;;26.17;18.27;;;;;;;;;;4962705;28;20229;-76
2023/03/01 06:37:38;;;;;;;27.53;18.80;;;;;;;;;;4954544;28;20240;-73
2023/03/01 06:40:10;;;;;;;27.37;18.63;;;;;;;;;;4954279;28;20225;-77
2023/03/01 06:42:39;;;;;;;29.43;18.97;;;;;;;;;;4947586;28;20815;-78
2023/03/01 06:45:06;;;;;;;25.70;18.43;;;;;;;;;;4953821;28;20512;-76
2023/03/01 06:47:34;;;;;;;31.30;19.50;;;;;;;;;;4951247;28;20725;-77
2023/03/01 06:50:01;;;;;;;27.77;18.93;;;;;;;;;;4951462;28;20806;-77
2023/03/01 06:52:29;;;;;;;27.97;18.70;;;;;;;;;;4956743;28;20291;-77
2023/03/01 06:54:56;;;;;;;29.27;19.83;;;;;;;;;;4950951;28;20697;-74
2023/03/01 06:57:23;;;;;;;28.57;19.73;;;;;;;;;;4955174;28;20223;-76
2023/03/01 06:59:50;;;;;;;32.13;20.27;;;;;;;;;;4962441;28;20690;-76
2023/03/01 07:02:18;;;;;;;34.03;20.30;;;;;;;;;;4956704;28;20227;-74
2023/03/01 07:04:45;;;;;;;28.47;19.00;;;;;;;;;;4953952;28;20224;-79
2023/03/01 07:07:13;;;;;;;29.77;19.53;;;;;;;;;;4951502;28;21827;-75
2023/03/01 07:09:40;;;;;;;28.70;18.80;;;;;;;;;;4976466;28;20201;-73
2023/03/01 07:12:07;;;;;;;31.00;19.47;;;;;;;;;;4959179;28;20208;-77
2023/03/01 07:14:35;;;;;;;31.80;20.80;;;;;;;;;;4961204;28;20211;-76
2023/03/01 07:17:02;;;;;;;32.63;20.93;;;;;;;;;;4954122;28;20243;-75
2023/03/01 07:19:29;;;;;;;31.70;20.37;;;;;;;;;;4962041;28;20228;-74
2023/03/01 07:21:57;;;;;;;28.03;18.77;;;;;;;;;;4957521;28;22833;-78
2023/03/01 07:24:24;;;;;;;29.40;19.27;;;;;;;;;;4953255;28;20244;-76
2023/03/01 07:26:53;;;;;;;27.17;18.93;;;;;;;;;;4956850;28;20220;-76
2023/03/01 07:29:20;;;;;;;27.07;18.97;;;;;;;;;;4955770;28;20591;-77
2023/03/01 07:31:47;;;;;;;28.57;18.43;;;;;;;;;;4963600;28;20232;-77
2023/03/01 07:34:15;;;;;;;30.00;19.17;;;;;;;;;;4971007;28;20204;-75
2023/03/01 07:36:43;;;;;;;29.97;19.67;;;;;;;;;;4979517;28;20215;-76
2023/03/01 07:39:10;;;;;;;29.13;18.93;;;;;;;;;;4968878;28;20209;-78
2023/03/01 07:41:38;;;;;;;28.73;19.47;;;;;;;;;;4975942;28;20674;-77
2023/03/01 07:44:05;;;;;;;33.07;20.70;;;;;;;;;;4961488;28;20196;-76
2023/03/01 07:46:32;;;;;;;32.40;20.33;;;;;;;;;;4963265;28;20881;-76
2023/03/01 07:49:00;;;;;;;28.60;19.07;;;;;;;;;;4949985;28;20240;-77
2023/03/01 07:51:27;;;;;;;32.37;19.87;;;;;;;;;;4956009;28;20256;-77
2023/03/01 07:53:55;;;;;;;38.63;20.63;;;;;;;;;;4954198;28;20208;-78
2023/03/01 07:56:22;;;;;;;32.00;19.33;;;;;;;;;;4955719;28;20211;-78
2023/03/01 07:58:49;;;;;;;37.33;21.37;;;;;;;;;;4955270;28;20243;-77
2023/03/01 08:01:18;;;;;;;31.57;18.53;;;;;;;;;;4953993;28;21034;-76
2023/03/01 08:03:45;;;;;;;30.63;19.93;;;;;;;;;;4945583;28;20219;-76
2023/03/01 08:06:14;;;;;;;27.20;19.23;;;;;;;;;;4956242;28;20663;-74
2023/03/01 08:08:42;;;;;;;32.20;19.90;;;;;;;;;;4946172;28;20220;-77
2023/03/01 08:11:10;;;;;;;30.47;19.10;;;;;;;;;;4946722;28;20249;-77
2023/03/01 08:13:38;;;;;;;26.23;18.30;;;;;;;;;;4947133;28;20757;-75
2023/03/01 08:16:08;;;;;;;52.30;29.47;;;;;;;;;;4946259;28;20213;-78
2023/03/01 08:18:35;;;;;;;34.03;22.63;;;;;;;;;;4958253;28;20222;-77
2023/03/01 08:21:04;;;;;;;33.47;20.73;;;;;;;;;;4946954;28;20236;-76
2023/03/01 08:23:31;;;;;;;28.93;18.90;;;;;;;;;;4952145;28;20257;-77
2023/03/01 08:26:25;;;;;;;32.50;20.63;;;;;;;;;;4946459;28;20259;-76
2023/03/01 08:28:56;;;;;;;31.77;19.53;;;;;;;;;;4953679;28;20228;-77
2023/03/01 08:31:24;;;;;;;31.77;19.70;;;;;;;;;;4947147;28;20224;-76
2023/03/01 08:33:57;;;;;;;30.50;18.20;;;;;;;;;;4951579;28;20240;-77
2023/03/01 08:36:25;;;;;;;28.37;18.83;;;;;;;;;;4951977;28;20206;-77
2023/03/01 08:38:53;;;;;;;29.47;19.33;;;;;;;;;;4951796;28;20209;-76
2023/03/01 08:41:21;;;;;;;32.37;18.87;;;;;;;;;;4947812;28;20232;-74
2023/03/01 08:43:48;;;;;;;29.33;19.40;;;;;;;;;;4954232;28;20214;-75
2023/03/01 08:46:15;;;;;;;27.83;18.90;;;;;;;;;;4962701;28;20239;-78
2023/03/01 08:48:43;;;;;;;27.97;19.03;;;;;;;;;;4955170;28;20325;-74
2023/03/01 08:51:12;;;;;;;26.40;18.27;;;;;;;;;;4956740;28;20230;-77
2023/03/01 08:53:40;;;;;;;30.47;19.20;;;;;;;;;;4956894;28;20299;-76
2023/03/01 08:56:07;;;;;;;26.30;18.23;;;;;;;;;;4951519;28;20202;-75
2023/03/01 08:58:34;;;;;;;24.33;18.13;;;;;;;;;;4953250;28;20211;-78
2023/03/01 09:01:07;;;;;;;29.80;18.83;;;;;;;;;;4964500;28;20779;-76
2023/03/01 09:03:34;;;;;;;26.97;18.23;;;;;;;;;;4976787;28;20785;-76
2023/03/01 09:06:02;;;;;;;29.40;18.20;;;;;;;;;;4967299;28;20227;-74
2023/03/01 09:08:29;;;;;;;28.07;18.53;;;;;;;;;;4958971;28;20242;-75
2023/03/01 09:10:56;;;;;;;28.43;18.57;;;;;;;;;;4954629;28;20222;-77
2023/03/01 09:13:27;;;;;;;27.37;17.90;;;;;;;;;;4948806;28;20216;-77
2023/03/01 09:15:54;;;;;;;25.97;18.57;;;;;;;;;;4960513;28;20234;-76
2023/03/01 09:18:21;;;;;;;28.73;18.53;;;;;;;;;;4946427;28;20230;-76
2023/03/01 09:20:51;;;;;;;26.63;18.93;;;;;;;;;;4957897;28;20883;-77
2023/03/01 09:23:18;;;;;;;27.13;19.40;;;;;;;;;;4956439;28;20706;-77
2023/03/01 09:25:45;;;;;;;27.23;18.50;;;;;;;;;;4952155;28;20870;-78
2023/03/01 09:28:13;;;;;;;24.90;17.67;;;;;;;;;;4959314;28;20250;-78
2023/03/01 09:30:59;;;;;;;24.53;17.43;;;;;;;;;;4954407;28;20261;-78
2023/03/01 09:33:27;;;;;;;26.70;17.07;;;;;;;;;;4968237;28;20591;-78
2023/03/01 09:35:58;;;;;;;26.80;18.37;;;;;;;;;;4966295;28;20203;-77
2023/03/01 09:38:25;;;;;;;26.43;17.67;;;;;;;;;;4967055;28;20305;-78
2023/03/01 09:40:53;;;;;;;26.93;17.43;;;;;;;;;;4970883;28;20237;-76
2023/03/01 09:43:29;;;;;;;26.00;17.13;;;;;;;;;;4954338;28;20702;-76
2023/03/01 09:46:00;;;;;;;27.33;17.33;;;;;;;;;;4957080;28;20207;-78
2023/03/01 09:48:29;;;;;;;26.53;17.90;;;;;;;;;;4957705;28;20767;-79
2023/03/01 09:50:56;;;;;;;26.77;17.90;;;;;;;;;;4953841;28;20753;-77
2023/03/01 09:53:31;;;;;;;27.93;18.00;;;;;;;;;;4949240;28;21495;-76
2023/03/01 09:56:00;;;;;;;25.70;17.00;;;;;;;;;;4947945;28;20208;-75
2023/03/01 09:58:45;;;;;;;29.10;18.47;;;;;;;;;;4952556;28;20207;-79
2023/03/01 10:01:24;;;;;;;27.93;17.77;;;;;;;;;;4954071;28;20234;-76
2023/03/01 10:04:01;;;;;;;29.60;17.97;;;;;;;;;;4952729;28;24156;-77
2023/03/01 10:06:29;;;;;;;25.67;17.87;;;;;;;;;;4946738;28;20219;-79
2023/03/01 10:09:06;;;;;;;27.10;17.47;;;;;;;;;;4962951;28;20309;-76
2023/03/01 10:11:36;;;;;;;25.90;16.73;;;;;;;;;;4953200;28;20227;-76
2023/03/01 10:14:23;;;;;;;29.03;17.83;;;;;;;;;;4954740;28;20255;-78
2023/03/01 10:16:58;;;;;;;27.90;17.00;;;;;;;;;;4953840;28;20294;-76
2023/03/01 10:19:29;;;;;;;24.63;16.50;;;;;;;;;;4956597;28;20253;-78
2023/03/01 10:22:01;;;;;;;25.07;16.53;;;;;;;;;;4959094;28;20238;-77
2023/03/01 10:24:32;;;;;;;25.60;16.00;;;;;;;;;;4959207;28;20208;-78
2023/03/01 10:27:05;;;;;;;23.33;15.57;;;;;;;;;;4946953;28;20767;-77
2023/03/01 10:29:40;;;;;;;23.07;16.07;;;;;;;;;;4956615;28;21513;-77
2023/03/01 10:32:07;;;;;;;25.50;16.70;;;;;;;;;;4962198;28;23943;-79
2023/03/01 10:34:36;;;;;;;24.53;16.33;;;;;;;;;;4964463;28;20207;-78
2023/03/01 10:37:13;;;;;;;26.30;16.90;;;;;;;;;;4973649;28;20819;-79
2023/03/01 10:39:59;;;;;;;27.43;17.87;;;;;;;;;;4962107;28;20290;-78
2023/03/01 10:42:31;;;;;;;27.77;18.07;;;;;;;;;;4964776;28;20216;-76
2023/03/01 10:45:15;;;;;;;28.93;18.53;;;;;;;;;;4964387;28;20222;-78
2023/03/01 10:47:42;;;;;;;25.73;17.63;;;;;;;;;;4961657;28;20255;-77
2023/03/01 10:50:23;;;;;;;29.57;18.40;;;;;;;;;;4964727;28;20235;-78
2023/03/01 10:52:59;;;;;;;27.60;18.53;;;;;;;;;;4964447;28;20626;-79
2023/03/01 10:55:32;;;;;;;27.30;17.60;;;;;;;;;;4971140;28;20200;-76
2023/03/01 10:58:15;;;;;;;29.63;18.90;;;;;;;;;;4974583;28;21394;-79
2023/03/01 11:00:55;;;;;;;29.93;19.30;;;;;;;;;;4958204;28;20331;-75
2023/03/01 11:03:25;;;;;;;30.30;18.03;;;;;;;;;;4961212;28;20208;-78
2023/03/01 11:05:52;;;;;;;26.90;17.37;;;;;;;;;;4960244;28;20237;-76
2023/03/01 11:08:38;;;;;;;26.00;17.17;;;;;;;;;;4958789;28;20233;-76
2023/03/01 11:11:25;;;;;;;25.30;17.47;;;;;;;;;;4955957;28;20266;-78
2023/03/01 11:13:57;;;;;;;25.83;17.63;;;;;;;;;;4964212;28;20236;-76
2023/03/01 11:16:35;;;;;;;26.63;17.17;;;;;;;;;;4956363;28;20220;-73
2023/03/01 11:19:11;;;;;;;24.30;17.73;;;;;;;;;;4963807;28;20224;-75
2023/03/01 11:21:51;;;;;;;28.30;18.17;;;;;;;;;;4961480;28;20830;-77
2023/03/01 11:24:20;;;;;;;27.80;18.50;;;;;;;;;;4957495;28;20215;-77
2023/03/01 11:26:51;;;;;;;27.27;19.40;;;;;;;;;;4959543;28;20211;-76
2023/03/01 11:29:39;;;;;;;27.80;18.70;;;;;;;;;;4965387;28;20220;-77
2023/03/01 11:32:15;;;;;;;26.03;18.43;;;;;;;;;;4976616;28;20362;-77
2023/03/01 11:34:43;;;;;;;30.93;20.83;;;;;;;;;;4963339;28;20220;-80
2023/03/01 11:37:16;;;;;;;28.63;20.00;;;;;;;;;;4964705;28;22391;-78
2023/03/01 11:39:47;;;;;;;28.70;19.93;;;;;;;;;;4963219;28;20950;-80
2023/03/01 11:42:49;;;;;;;28.13;19.60;;;;;;;;;;4954624;28;20751;-79
2023/03/01 11:45:16;;;;;;;27.07;19.37;;;;;;;;;;4940182;28;20347;-78
2023/03/01 11:47:53;;;;;;;25.47;18.63;;;;;;;;;;4957856;28;20205;-78
2023/03/01 11:50:29;;;;;;;28.90;20.33;;;;;;;;;;4972963;28;20232;-77
2023/03/01 11:53:02;;;;;;;28.70;19.33;;;;;;;;;;4966191;28;20294;-76
2023/03/01 11:55:41;;;;;;;25.40;18.17;;;;;;;;;;4961533;28;20251;-77
2023/03/01 11:58:27;;;;;;;27.47;18.87;;;;;;;;;;4959080;28;20209;-78
2023/03/01 12:01:10;;;;;;;25.97;17.53;;;;;;;;;;4971456;28;20328;-78
2023/03/01 12:03:37;;;;;;;27.03;18.27;;;;;;;;;;4970197;28;20216;-78
2023/03/01 12:06:23;;;;;;;25.23;17.87;;;;;;;;;;4971037;28;20223;-78
2023/03/01 12:08:59;;;;;;;25.80;18.03;;;;;;;;;;4974051;28;20232;-78
2023/03/01 12:11:45;;;;;;;25.00;17.47;;;;;;;;;;4970036;28;20239;-78
2023/03/01 12:14:16;;;;;;;26.17;17.53;;;;;;;;;;4978108;28;20291;-78
2023/03/01 12:17:02;;;;;;;26.27;18.20;;;;;;;;;;4973731;28;20271;-76
2023/03/01 12:19:42;;;;;;;22.23;16.60;;;;;;;;;;4960713;28;20408;-77
2023/03/01 12:22:21;;;;;;;23.67;16.43;;;;;;;;;;4959898;28;20236;-78
2023/03/01 12:24:57;;;;;;;22.80;16.60;;;;;;;;;;4965498;28;20681;-77
2023/03/01 12:27:30;;;;;;;22.50;16.90;;;;;;;;;;4949757;28;20710;-76
2023/03/01 12:30:07;;;;;;;21.50;16.63;;;;;;;;;;4947613;28;20726;-79
2023/03/01 12:32:45;;;;;;;22.47;16.07;;;;;;;;;;4948841;28;20204;-77
2023/03/01 12:35:31;;;;;;;24.83;17.63;;;;;;;;;;4957210;28;20316;-78
2023/03/01 12:38:13;;;;;;;26.17;17.90;;;;;;;;;;4960070;28;20296;-78
2023/03/01 12:40:41;;;;;;;21.23;16.53;;;;;;;;;;4954312;28;20225;-77
2023/03/01 12:43:08;;;;;;;24.00;17.00;;;;;;;;;;4954403;28;20200;-78
2023/03/01 12:45:44;;;;;;;24.30;15.60;;;;;;;;;;4952186;28;20217;-76
2023/03/01 12:48:21;;;;;;;22.40;16.00;;;;;;;;;;4946830;28;20212;-78
2023/03/01 12:50:51;;;;;;;22.73;15.93;;;;;;;;;;4960198;28;20529;-75
2023/03/01 12:53:22;;;;;;;26.27;16.63;;;;;;;;;;4953085;28;20396;-76
2023/03/01 12:55:49;;;;;;;20.73;15.93;;;;;;;;;;4960356;28;20205;-79
2023/03/01 12:58:39;;;;;;;22.70;15.77;;;;;;;;;;4973505;28;20209;-77
2023/03/01 13:01:35;;;;;;;21.17;15.97;;;;;;;;;;4963315;28;20243;-76
2023/03/01 13:04:22;;;;;;;21.50;16.20;;;;;;;;;;4963521;28;20215;-77
2023/03/01 13:06:49;;;;;;;23.10;16.37;;;;;;;;;;4965728;28;20291;-76
2023/03/01 13:09:19;;;;;;;23.73;16.03;;;;;;;;;;4970195;28;20240;-79
2023/03/01 13:11:47;;;;;;;21.43;16.33;;;;;;;;;;4958054;28;20221;-77
2023/03/01 13:14:23;;;;;;;20.43;16.03;;;;;;;;;;4959505;28;20677;-78
2023/03/01 13:16:52;;;;;;;22.50;15.63;;;;;;;;;;4957447;28;20211;-76
2023/03/01 13:19:20;;;;;;;21.13;15.37;;;;;;;;;;4951192;28;20247;-78
2023/03/01 13:21:49;;;;;;;20.07;16.07;;;;;;;;;;4953272;28;20220;-78
2023/03/01 13:24:25;;;;;;;22.47;16.27;;;;;;;;;;4959246;28;20225;-78
2023/03/01 13:27:10;;;;;;;21.00;15.87;;;;;;;;;;4953602;28;21042;-75
2023/03/01 13:29:47;;;;;;;20.73;15.47;;;;;;;;;;4953987;28;20227;-78
2023/03/01 13:32:21;;;;;;;19.57;15.27;;;;;;;;;;4964967;28;20219;-78
2023/03/01 13:35:04;;;;;;;18.30;14.60;;;;;;;;;;4968628;28;20365;-76
2023/03/01 13:37:33;;;;;;;20.80;15.70;;;;;;;;;;4968859;28;21159;-76
2023/03/01 13:40:06;;;;;;;22.60;16.43;;;;;;;;;;4969811;28;20875;-78
2023/03/01 13:42:37;;;;;;;20.80;15.63;;;;;;;;;;4961491;28;20212;-77
2023/03/01 13:45:25;;;;;;;21.53;14.97;;;;;;;;;;4957369;28;20243;-76
2023/03/01 13:47:55;;;;;;;18.53;14.87;;;;;;;;;;4958304;28;20303;-75
2023/03/01 13:50:24;;;;;;;20.60;15.53;;;;;;;;;;4958825;28;20247;-79
2023/03/01 13:52:51;;;;;;;22.33;15.50;;;;;;;;;;4953097;28;20300;-78
2023/03/01 13:55:21;;;;;;;20.63;15.30;;;;;;;;;;4962385;28;20300;-77
2023/03/01 13:57:54;;;;;;;21.43;15.67;;;;;;;;;;4955358;28;20204;-75
2023/03/01 14:00:27;;;;;;;19.43;14.93;;;;;;;;;;4959690;28;21395;-77
2023/03/01 14:03:16;;;;;;;18.10;14.23;;;;;;;;;;4954852;28;20229;-75
2023/03/01 14:05:57;;;;;;;20.80;15.50;;;;;;;;;;4955236;28;20307;-75
2023/03/01 14:08:40;;;;;;;18.80;14.63;;;;;;;;;;4959833;28;20233;-76
2023/03/01 14:11:26;;;;;;;19.47;14.77;;;;;;;;;;4958182;28;20709;-76
2023/03/01 14:14:04;;;;;;;19.70;15.30;;;;;;;;;;4954186;28;20197;-76
2023/03/01 14:16:50;;;;;;;20.93;14.97;;;;;;;;;;4957205;28;20351;-77
2023/03/01 14:19:24;;;;;;;17.77;13.90;;;;;;;;;;4924308;28;1114452;-77
2023/03/01 14:22:04;;;;;;;20.20;14.67;;;;;;;;;;4964792;28;20240;-77
2023/03/01 14:24:35;;;;;;;20.50;15.53;;;;;;;;;;4955967;28;21151;-78
2023/03/01 14:27:02;;;;;;;19.13;15.50;;;;;;;;;;4963343;28;20666;-77
2023/03/01 14:29:36;;;;;;;19.07;15.07;;;;;;;;;;4956304;28;21725;-78
2023/03/01 14:32:19;;;;;;;19.23;15.00;;;;;;;;;;4959329;28;20207;-74
2023/03/01 14:34:48;;;;;;;19.67;15.13;;;;;;;;;;4959336;28;20664;-77
2023/03/01 14:37:28;;;;;;;19.10;15.03;;;;;;;;;;4962251;28;20693;-77